createdAt,value
2023-03-15T00:00:03.703Z,1.30
2023-03-15T00:01:03.686Z,1.37
2023-03-15T00:02:03.721Z,1.42
2023-03-15T00:03:03.698Z,1.33
2023-03-15T00:04:03.626Z,1.24
2023-03-15T00:05:03.612Z,1.32
2023-03-15T00:06:03.576Z,1.34
2023-03-15T00:07:03.557Z,1.32
2023-03-15T00:08:04.650Z,1.34
2023-03-15T00:09:03.575Z,1.34
2023-03-15T00:10:03.492Z,1.41
2023-03-15T00:11:03.479Z,1.40
2023-03-15T00:12:03.460Z,1.42
2023-03-15T00:13:03.434Z,1.44
2023-03-15T00:14:03.413Z,1.37
2023-03-15T00:15:03.451Z,1.44
2023-03-15T00:16:03.607Z,1.44
2023-03-15T00:17:03.343Z,1.41
2023-03-15T00:18:03.368Z,1.41
2023-03-15T00:19:03.306Z,1.40
2023-03-15T00:20:03.286Z,1.41
2023-03-15T00:21:03.260Z,1.36
2023-03-15T00:22:03.254Z,1.34
2023-03-15T00:23:03.217Z,1.34
2023-03-15T00:24:03.210Z,1.26
2023-03-15T00:25:03.181Z,1.30
2023-03-15T00:26:03.154Z,1.29
2023-03-15T00:27:03.144Z,1.20
2023-03-15T00:28:03.114Z,1.33
2023-03-15T00:29:03.103Z,1.26
2023-03-15T00:30:03.073Z,1.26
2023-03-15T00:31:03.079Z,1.34
2023-03-15T00:32:03.033Z,1.36
2023-03-15T00:33:03.006Z,1.37
2023-03-15T00:34:02.987Z,1.44
2023-03-15T00:35:02.964Z,1.48
2023-03-15T00:36:02.975Z,1.55
2023-03-15T00:37:02.961Z,1.55
2023-03-15T00:38:02.902Z,1.51
2023-03-15T00:39:02.884Z,1.48
2023-03-15T00:40:02.863Z,1.47
2023-03-15T00:41:02.878Z,1.59
2023-03-15T00:42:02.832Z,1.55
2023-03-15T00:43:02.798Z,1.60
2023-03-15T00:44:02.773Z,1.44
2023-03-15T00:45:02.760Z,1.63
2023-03-15T00:46:02.735Z,1.55
2023-03-15T00:47:02.743Z,1.60
2023-03-15T00:48:02.690Z,1.63
2023-03-15T00:49:02.671Z,1.63
2023-03-15T00:50:02.652Z,1.66
2023-03-15T00:51:02.672Z,1.69
2023-03-15T00:52:02.661Z,1.70
2023-03-15T00:53:02.589Z,1.84
2023-03-15T00:54:02.581Z,1.88
2023-03-15T00:55:02.557Z,1.87
2023-03-15T00:56:02.524Z,1.91
2023-03-15T00:57:02.519Z,1.88
2023-03-15T00:58:02.488Z,1.99
2023-03-15T00:59:02.487Z,1.99
2023-03-15T01:00:02.440Z,2.05
2023-03-15T01:01:02.432Z,1.98
2023-03-15T01:02:02.523Z,2.03
2023-03-15T01:03:02.452Z,2.09
2023-03-15T01:04:02.370Z,2.10
2023-03-15T01:05:02.338Z,2.14
2023-03-15T01:06:02.313Z,2.16
2023-03-15T01:07:02.293Z,2.06
2023-03-15T01:08:02.297Z,2.10
2023-03-15T01:09:02.270Z,2.09
2023-03-15T01:10:02.265Z,2.10
2023-03-15T01:11:02.208Z,2.17
2023-03-15T01:12:02.205Z,2.12
2023-03-15T01:13:02.169Z,2.27
2023-03-15T01:14:02.145Z,2.20
2023-03-15T01:15:02.149Z,2.17
2023-03-15T01:16:02.142Z,2.24
2023-03-15T01:17:02.096Z,2.17
2023-03-15T01:18:02.057Z,2.16
2023-03-15T01:19:02.064Z,2.16
2023-03-15T01:20:02.102Z,2.07
2023-03-15T01:21:01.995Z,2.00
2023-03-15T01:22:02.002Z,2.12
2023-03-15T01:23:01.954Z,1.95
2023-03-15T01:24:01.936Z,1.95
2023-03-15T01:25:01.924Z,1.87
2023-03-15T01:26:01.894Z,1.84
2023-03-15T01:27:01.913Z,1.87
2023-03-15T01:28:01.859Z,1.76
2023-03-15T01:29:01.828Z,1.72
2023-03-15T01:30:01.898Z,1.65
2023-03-15T01:31:01.829Z,1.65
2023-03-15T01:32:01.760Z,1.62
2023-03-15T01:33:01.756Z,1.68
2023-03-15T01:34:01.720Z,1.69
2023-03-15T01:35:01.700Z,1.63
2023-03-15T01:36:01.751Z,1.65
2023-03-15T01:37:01.714Z,1.60
2023-03-15T01:38:01.636Z,1.62
2023-03-15T01:39:01.622Z,1.58
2023-03-15T01:40:01.606Z,1.55
2023-03-15T01:41:01.573Z,1.62
2023-03-15T01:42:01.600Z,1.59
2023-03-15T01:43:01.535Z,1.59
2023-03-15T01:44:01.509Z,1.60
2023-03-15T01:45:01.490Z,1.51
2023-03-15T01:46:01.493Z,1.55
2023-03-15T01:47:01.492Z,1.47
2023-03-15T01:48:01.566Z,1.44
2023-03-15T01:49:01.513Z,1.42
2023-03-15T01:50:01.382Z,1.44
2023-03-15T01:51:01.361Z,1.37
2023-03-15T01:52:01.334Z,1.33
2023-03-15T01:53:01.394Z,1.36
2023-03-15T01:54:01.333Z,1.34
2023-03-15T01:55:01.283Z,1.40
2023-03-15T01:56:01.264Z,1.34
2023-03-15T01:57:01.228Z,1.40
2023-03-15T01:58:01.211Z,1.36
2023-03-15T01:59:01.211Z,1.40
2023-03-15T02:00:01.168Z,1.36
2023-03-15T02:01:01.273Z,1.40
2023-03-15T02:02:01.194Z,1.32
2023-03-15T02:03:01.099Z,1.40
2023-03-15T02:04:01.091Z,1.41
2023-03-15T02:05:01.085Z,1.34
2023-03-15T02:06:01.052Z,1.37
2023-03-15T02:07:01.023Z,1.37
2023-03-15T02:08:00.997Z,1.34
2023-03-15T02:09:01.006Z,1.33
2023-03-15T02:10:00.984Z,1.41
2023-03-15T02:11:00.942Z,1.41
2023-03-15T02:12:00.925Z,1.42
2023-03-15T02:13:00.896Z,1.42
2023-03-15T02:14:00.897Z,1.44
2023-03-15T02:15:00.909Z,1.41
2023-03-15T02:16:00.899Z,1.44
2023-03-15T02:17:00.805Z,1.41
2023-03-15T02:18:00.809Z,1.45
2023-03-15T02:19:00.790Z,1.45
2023-03-15T02:20:00.740Z,1.45
2023-03-15T02:21:00.775Z,1.50
2023-03-15T02:22:00.706Z,1.54
2023-03-15T02:23:00.676Z,1.51
2023-03-15T02:24:00.673Z,1.52
2023-03-15T02:25:00.634Z,1.52
2023-03-15T02:26:00.653Z,1.51
2023-03-15T02:27:00.655Z,1.51
2023-03-15T02:28:00.571Z,1.52
2023-03-15T02:29:00.553Z,1.48
2023-03-15T02:30:00.546Z,1.59
2023-03-15T02:31:00.552Z,1.52
2023-03-15T02:32:00.568Z,1.44
2023-03-15T02:33:00.505Z,1.45
2023-03-15T02:34:00.460Z,1.58
2023-03-15T02:35:00.422Z,1.65
2023-03-15T02:36:00.479Z,1.60
2023-03-15T02:37:00.401Z,1.51
2023-03-15T02:38:00.360Z,1.54
2023-03-15T02:39:00.335Z,1.55
2023-03-15T02:40:00.330Z,1.59
2023-03-15T02:41:00.291Z,1.62
2023-03-15T02:42:00.274Z,1.62
2023-03-15T02:43:00.330Z,1.66
2023-03-15T02:44:00.247Z,1.63
2023-03-15T02:45:00.209Z,1.68
2023-03-15T02:46:00.242Z,1.63
2023-03-15T02:47:00.166Z,1.63
2023-03-15T02:48:00.143Z,1.63
2023-03-15T02:49:00.150Z,1.70
2023-03-15T02:50:00.170Z,1.68
2023-03-15T02:51:00.118Z,1.66
2023-03-15T02:52:00.083Z,1.68
2023-03-15T02:53:00.051Z,1.69
2023-03-15T02:54:00.025Z,1.60
2023-03-15T02:55:00.063Z,1.70
2023-03-15T02:55:59.992Z,1.65
2023-03-15T02:56:59.959Z,1.63
2023-03-15T02:57:59.947Z,1.79
2023-03-15T02:58:59.917Z,1.63
2023-03-15T02:59:59.892Z,1.69
2023-03-15T03:00:59.945Z,1.60
2023-03-15T03:01:59.942Z,1.68
2023-03-15T03:02:59.830Z,1.77
2023-03-15T03:03:59.814Z,1.73
2023-03-15T03:04:59.790Z,1.76
2023-03-15T03:05:59.815Z,1.79
2023-03-15T03:06:59.748Z,1.76
2023-03-15T03:07:59.723Z,1.79
2023-03-15T03:08:59.715Z,1.76
2023-03-15T03:09:59.682Z,1.73
2023-03-15T03:10:59.664Z,1.62
2023-03-15T03:11:59.645Z,1.63
2023-03-15T03:12:59.636Z,1.60
2023-03-15T03:13:59.600Z,1.68
2023-03-15T03:14:59.583Z,1.76
2023-03-15T03:15:59.634Z,1.68
2023-03-15T03:16:59.578Z,1.70
2023-03-15T03:17:59.531Z,1.68
2023-03-15T03:18:59.492Z,1.69
2023-03-15T03:19:59.469Z,1.81
2023-03-15T03:20:59.450Z,1.70
2023-03-15T03:21:59.481Z,1.73
2023-03-15T03:22:59.407Z,1.72
2023-03-15T03:23:59.403Z,1.80
2023-03-15T03:24:59.378Z,1.73
2023-03-15T03:25:59.341Z,1.72
2023-03-15T03:27:26.379Z,1.88
2023-03-15T03:27:59.302Z,1.86
2023-03-15T03:28:59.280Z,1.83
2023-03-15T03:29:59.265Z,1.77
2023-03-15T03:30:59.272Z,1.87
2023-03-15T03:31:59.216Z,1.88
2023-03-15T03:32:59.363Z,1.88
2023-03-15T03:33:59.181Z,1.87
2023-03-15T03:34:59.154Z,1.98
2023-03-15T03:35:59.170Z,1.87
2023-03-15T03:36:59.114Z,1.88
2023-03-15T03:37:59.117Z,1.87
2023-03-15T03:38:59.068Z,1.87
2023-03-15T03:39:59.052Z,1.88
2023-03-15T03:40:59.062Z,1.91
2023-03-15T03:41:59.005Z,1.86
2023-03-15T03:42:58.991Z,1.86
2023-03-15T03:43:58.979Z,1.84
2023-03-15T03:44:58.964Z,1.87
2023-03-15T03:45:58.966Z,1.88
2023-03-15T03:46:58.897Z,1.86
2023-03-15T03:47:58.876Z,1.87
2023-03-15T03:48:58.853Z,1.81
2023-03-15T03:49:58.891Z,1.90
2023-03-15T03:50:58.829Z,1.88
2023-03-15T03:51:58.790Z,1.88
2023-03-15T03:52:58.776Z,1.86
2023-03-15T03:53:58.751Z,1.87
2023-03-15T03:54:58.726Z,1.91
2023-03-15T03:55:58.707Z,1.86
2023-03-15T03:56:58.740Z,1.88
2023-03-15T03:57:58.672Z,1.90
2023-03-15T03:58:58.641Z,1.86
2023-03-15T03:59:58.618Z,1.83
2023-03-15T04:00:58.612Z,1.87
2023-03-15T04:01:58.587Z,1.86
2023-03-15T04:02:58.557Z,1.81
2023-03-15T04:03:58.540Z,1.86
2023-03-15T04:04:58.570Z,1.84
2023-03-15T04:05:58.495Z,1.83
2023-03-15T04:06:58.476Z,1.88
2023-03-15T04:07:58.453Z,1.86
2023-03-15T04:08:58.444Z,1.91
2023-03-15T04:09:58.409Z,1.87
2023-03-15T04:10:58.385Z,1.88
2023-03-15T04:11:58.363Z,1.88
2023-03-15T04:12:58.388Z,1.86
2023-03-15T04:13:58.320Z,1.86
2023-03-15T04:14:58.304Z,1.88
2023-03-15T04:15:58.405Z,1.95
2023-03-15T04:16:58.263Z,1.95
2023-03-15T04:17:58.266Z,1.98
2023-03-15T04:18:58.221Z,2.02
2023-03-15T04:19:58.194Z,1.98
2023-03-15T04:20:58.178Z,1.98
2023-03-15T04:21:58.153Z,1.98
2023-03-15T04:22:58.210Z,1.93
2023-03-15T04:23:58.126Z,1.93
2023-03-15T04:24:58.090Z,1.91
2023-03-15T04:25:58.219Z,1.91
2023-03-15T04:26:58.141Z,1.93
2023-03-15T04:27:58.025Z,1.90
2023-03-15T04:28:58.040Z,1.98
2023-03-15T04:29:57.986Z,1.93
2023-03-15T04:30:57.981Z,1.91
2023-03-15T04:31:57.942Z,1.93
2023-03-15T04:32:57.987Z,1.95
2023-03-15T04:33:57.935Z,1.98
2023-03-15T04:34:57.890Z,1.95
2023-03-15T04:35:57.911Z,1.95
2023-03-15T04:36:57.841Z,1.98
2023-03-15T04:37:57.819Z,1.95
2023-03-15T04:38:57.840Z,1.88
2023-03-15T04:39:57.777Z,1.84
2023-03-15T04:40:57.758Z,1.91
2023-03-15T04:41:57.758Z,1.87
2023-03-15T04:42:57.713Z,1.87
2023-03-15T04:43:57.765Z,1.86
2023-03-15T04:44:57.678Z,1.86
2023-03-15T04:45:57.670Z,1.87
2023-03-15T04:46:57.647Z,2.02
2023-03-15T04:47:57.617Z,1.93
2023-03-15T04:48:57.618Z,2.00
2023-03-15T04:49:57.593Z,1.95
2023-03-15T04:50:57.548Z,1.99
2023-03-15T04:51:57.528Z,1.95
2023-03-15T04:52:57.501Z,1.88
2023-03-15T04:53:57.484Z,2.00
2023-03-15T04:54:57.486Z,1.90
2023-03-15T04:55:57.438Z,1.87
2023-03-15T04:56:57.472Z,1.87
2023-03-15T04:57:57.396Z,1.83
2023-03-15T04:58:57.391Z,1.88
2023-03-15T04:59:57.384Z,1.83
2023-03-15T05:00:57.368Z,1.91
2023-03-15T05:01:57.355Z,1.93
2023-03-15T05:02:57.290Z,1.87
2023-03-15T05:03:57.269Z,1.87
2023-03-15T05:04:57.252Z,1.87
2023-03-15T05:05:57.279Z,1.87
2023-03-15T05:06:57.208Z,1.90
2023-03-15T05:07:57.184Z,1.91
2023-03-15T05:08:57.173Z,1.88
2023-03-15T05:09:57.152Z,1.88
2023-03-15T05:10:57.129Z,1.91
2023-03-15T05:11:57.137Z,1.86
2023-03-15T05:12:57.077Z,1.86
2023-03-15T05:13:57.064Z,1.91
2023-03-15T05:14:57.054Z,1.91
2023-03-15T05:15:57.073Z,1.91
2023-03-15T05:16:57.043Z,2.00
2023-03-15T05:17:56.972Z,1.93
2023-03-15T05:18:56.967Z,1.93
2023-03-15T05:19:56.933Z,1.86
2023-03-15T05:20:56.915Z,1.86
2023-03-15T05:21:56.889Z,1.90
2023-03-15T05:22:56.894Z,1.86
2023-03-15T05:23:56.846Z,1.88
2023-03-15T05:24:56.823Z,1.91
2023-03-15T05:25:56.804Z,1.98
2023-03-15T05:26:56.782Z,1.98
2023-03-15T05:27:56.799Z,1.98
2023-03-15T05:28:56.767Z,1.91
2023-03-15T05:29:56.721Z,1.95
2023-03-15T05:30:57.937Z,1.95
2023-03-15T05:31:56.768Z,1.98
2023-03-15T05:32:56.762Z,1.91
2023-03-15T05:33:56.639Z,1.95
2023-03-15T05:34:56.623Z,1.99
2023-03-15T05:35:56.717Z,1.93
2023-03-15T05:36:56.582Z,1.98
2023-03-15T05:37:56.561Z,1.91
2023-03-15T05:38:56.562Z,1.98
2023-03-15T05:39:56.574Z,1.93
2023-03-15T05:40:56.487Z,1.93
2023-03-15T05:41:56.469Z,1.95
2023-03-15T05:42:56.444Z,1.95
2023-03-15T05:43:56.424Z,1.99
2023-03-15T05:44:56.413Z,2.02
2023-03-15T05:45:56.408Z,2.00
2023-03-15T05:46:56.380Z,2.00
2023-03-15T05:47:56.350Z,1.93
2023-03-15T05:48:56.324Z,2.00
2023-03-15T05:49:56.301Z,2.00
2023-03-15T05:50:56.337Z,2.00
2023-03-15T05:51:56.290Z,1.99
2023-03-15T05:52:56.234Z,2.02
2023-03-15T05:53:56.218Z,2.06
2023-03-15T05:54:56.195Z,1.98
2023-03-15T05:55:56.172Z,1.99
2023-03-15T05:56:56.204Z,1.99
2023-03-15T05:57:56.136Z,1.99
2023-03-15T05:58:56.113Z,1.99
2023-03-15T05:59:56.085Z,1.98
2023-03-15T06:00:56.064Z,1.98
2023-03-15T06:01:56.109Z,1.95
2023-03-15T06:02:56.106Z,1.93
2023-03-15T06:03:56.038Z,1.99
2023-03-15T06:04:55.997Z,2.02
2023-03-15T06:05:55.973Z,1.93
2023-03-15T06:06:55.939Z,1.95
2023-03-15T06:07:55.921Z,2.05
2023-03-15T06:08:55.907Z,1.93
2023-03-15T06:09:55.901Z,1.93
2023-03-15T06:10:55.856Z,1.93
2023-03-15T06:11:55.878Z,1.95
2023-03-15T06:12:55.819Z,1.98
2023-03-15T06:13:55.794Z,2.02
2023-03-15T06:14:55.788Z,1.93
2023-03-15T06:15:55.754Z,1.99
2023-03-15T06:16:55.813Z,1.98
2023-03-15T06:17:55.715Z,1.98
2023-03-15T06:18:55.692Z,2.03
2023-03-15T06:19:55.730Z,1.91
2023-03-15T06:20:55.658Z,1.93
2023-03-15T06:21:55.627Z,1.98
2023-03-15T06:22:55.606Z,1.99
2023-03-15T06:23:55.581Z,2.02
2023-03-15T06:24:55.577Z,2.05
2023-03-15T06:25:55.545Z,1.98
2023-03-15T06:26:55.523Z,2.02
2023-03-15T06:27:55.500Z,2.03
2023-03-15T06:28:55.479Z,1.93
2023-03-15T06:29:55.459Z,2.02
2023-03-15T06:30:55.522Z,2.03
2023-03-15T06:31:55.417Z,2.07
2023-03-15T06:32:55.463Z,2.09
2023-03-15T06:33:55.390Z,2.10
2023-03-15T06:34:55.379Z,2.10
2023-03-15T06:35:55.354Z,2.14
2023-03-15T06:36:55.318Z,2.16
2023-03-15T06:37:55.295Z,2.17
2023-03-15T06:38:55.301Z,2.10
2023-03-15T06:39:55.268Z,2.12
2023-03-15T06:40:55.229Z,2.10
2023-03-15T06:41:55.209Z,2.14
2023-03-15T06:42:55.236Z,2.09
2023-03-15T06:43:55.183Z,2.14
2023-03-15T06:44:55.145Z,2.07
2023-03-15T06:45:55.139Z,2.18
2023-03-15T06:46:55.135Z,2.17
2023-03-15T06:47:55.085Z,2.16
2023-03-15T06:48:55.088Z,2.16
2023-03-15T06:49:56.825Z,2.14
2023-03-15T06:50:55.019Z,2.24
2023-03-15T06:51:55.012Z,2.12
2023-03-15T06:52:54.984Z,2.14
2023-03-15T06:53:54.986Z,2.16
2023-03-15T06:54:54.950Z,2.23
2023-03-15T06:55:54.917Z,2.23
2023-03-15T06:56:54.921Z,2.23
2023-03-15T06:57:54.874Z,2.27
2023-03-15T06:58:54.854Z,2.12
2023-03-15T06:59:54.835Z,2.16
2023-03-15T07:00:54.850Z,2.16
2023-03-15T07:01:54.870Z,2.20
2023-03-15T07:02:54.769Z,2.21
2023-03-15T07:03:54.751Z,2.28
2023-03-15T07:04:54.733Z,2.27
2023-03-15T07:05:54.772Z,2.31
2023-03-15T07:06:54.692Z,2.41
2023-03-15T07:07:54.668Z,2.38
2023-03-15T07:08:54.654Z,2.43
2023-03-15T07:09:55.306Z,2.42
2023-03-15T07:10:54.635Z,2.39
2023-03-15T07:11:54.601Z,2.38
2023-03-15T07:12:54.604Z,2.35
2023-03-15T07:13:54.547Z,2.39
2023-03-15T07:14:54.524Z,2.39
2023-03-15T07:15:54.546Z,2.39
2023-03-15T07:16:54.494Z,2.39
2023-03-15T07:17:54.491Z,2.53
2023-03-15T07:18:54.443Z,2.46
2023-03-15T07:19:56.803Z,2.48
2023-03-15T07:20:54.478Z,2.41
2023-03-15T07:21:54.384Z,2.45
2023-03-15T07:22:54.472Z,2.46
2023-03-15T07:23:54.384Z,2.45
2023-03-15T07:24:54.334Z,2.54
2023-03-15T07:25:55.520Z,2.52
2023-03-15T07:26:54.278Z,2.54
2023-03-15T07:27:54.284Z,2.54
2023-03-15T07:28:54.248Z,2.54
2023-03-15T07:29:54.221Z,2.57
2023-03-15T07:30:54.197Z,2.54
2023-03-15T07:31:54.235Z,2.46
2023-03-15T07:32:54.408Z,2.59
2023-03-15T07:33:54.147Z,2.63
2023-03-15T07:34:54.124Z,2.66
2023-03-15T07:35:54.141Z,2.72
2023-03-15T07:36:54.073Z,2.71
2023-03-15T07:37:54.054Z,2.67
2023-03-15T07:38:54.038Z,2.69
2023-03-15T07:39:54.013Z,2.84
2023-03-15T07:40:54.001Z,2.79
2023-03-15T07:41:54.001Z,2.79
2023-03-15T07:42:53.952Z,2.82
2023-03-15T07:43:53.929Z,2.81
2023-03-15T07:44:53.940Z,2.81
2023-03-15T07:45:53.913Z,2.85
2023-03-15T07:46:53.937Z,2.89
2023-03-15T07:47:56.515Z,2.89
2023-03-15T07:48:53.846Z,2.81
2023-03-15T07:49:53.806Z,2.81
2023-03-15T07:50:53.789Z,2.87
2023-03-15T07:51:53.764Z,3.03
2023-03-15T07:52:53.766Z,2.93
2023-03-15T07:53:53.724Z,2.92
2023-03-15T07:54:53.704Z,2.97
2023-03-15T07:55:53.740Z,2.90
2023-03-15T07:56:53.690Z,2.96
2023-03-15T07:57:53.647Z,2.99
2023-03-15T07:58:53.630Z,2.97
2023-03-15T07:59:53.620Z,2.96
2023-03-15T08:00:53.601Z,2.95
2023-03-15T08:01:53.653Z,3.03
2023-03-15T08:02:53.555Z,3.05
2023-03-15T08:03:53.530Z,3.03
2023-03-15T08:04:53.502Z,3.05
2023-03-15T08:05:53.500Z,3.11
2023-03-15T08:06:53.481Z,3.11
2023-03-15T08:07:53.481Z,3.03
2023-03-15T08:08:53.436Z,3.03
2023-03-15T08:09:53.424Z,3.03
2023-03-15T08:10:53.385Z,2.97
2023-03-15T08:11:53.459Z,2.97
2023-03-15T08:12:53.355Z,2.92
2023-03-15T08:13:53.339Z,2.92
2023-03-15T08:14:53.310Z,2.85
2023-03-15T08:15:53.301Z,2.93
2023-03-15T08:16:53.285Z,3.03
2023-03-15T08:17:53.248Z,3.06
2023-03-15T08:18:53.222Z,3.10
2023-03-15T08:19:53.210Z,3.14
2023-03-15T08:20:53.274Z,3.11
2023-03-15T08:21:53.161Z,3.13
2023-03-15T08:22:53.143Z,3.11
2023-03-15T08:23:53.120Z,3.15
2023-03-15T08:24:53.103Z,3.23
2023-03-15T08:25:53.081Z,3.26
2023-03-15T08:26:53.062Z,3.20
2023-03-15T08:27:53.068Z,3.20
2023-03-15T08:28:53.046Z,3.29
2023-03-15T08:29:53.421Z,3.17
2023-03-15T08:30:52.979Z,3.23
2023-03-15T08:31:53.049Z,3.31
2023-03-15T08:32:53.141Z,3.29
2023-03-15T08:33:52.936Z,3.32
2023-03-15T08:34:52.971Z,3.26
2023-03-15T08:35:52.985Z,3.35
2023-03-15T08:36:52.905Z,3.36
2023-03-15T08:37:52.850Z,3.42
2023-03-15T08:38:52.823Z,3.31
2023-03-15T08:39:52.802Z,3.35
2023-03-15T08:40:52.794Z,3.48
2023-03-15T08:41:52.777Z,3.51
2023-03-15T08:42:52.746Z,3.47
2023-03-15T08:43:52.715Z,3.48
2023-03-15T08:44:52.806Z,3.51
2023-03-15T08:46:00.656Z,3.55
2023-03-15T08:46:52.773Z,3.45
2023-03-15T08:47:52.634Z,3.48
2023-03-15T08:48:52.616Z,3.55
2023-03-15T08:49:52.592Z,3.69
2023-03-15T08:50:52.583Z,3.65
2023-03-15T08:51:52.612Z,3.78
2023-03-15T08:52:52.553Z,3.76
2023-03-15T08:53:52.515Z,3.80
2023-03-15T08:54:52.498Z,3.79
2023-03-15T08:55:52.477Z,3.87
2023-03-15T08:56:52.465Z,3.88
2023-03-15T08:57:52.436Z,3.83
2023-03-15T08:58:52.449Z,3.80
2023-03-15T08:59:52.775Z,3.88
2023-03-15T09:00:52.393Z,3.88
2023-03-15T09:01:52.424Z,3.86
2023-03-15T09:02:52.750Z,4.00
2023-03-15T09:03:52.346Z,3.98
2023-03-15T09:04:53.525Z,4.12
2023-03-15T09:05:52.273Z,4.15
2023-03-15T09:06:52.284Z,4.26
2023-03-15T09:07:52.232Z,4.24
2023-03-15T09:08:52.253Z,4.29
2023-03-15T09:09:52.209Z,4.34
2023-03-15T09:10:52.178Z,4.29
2023-03-15T09:11:52.158Z,4.30
2023-03-15T09:12:52.165Z,4.40
2023-03-15T09:13:52.128Z,4.40
2023-03-15T09:14:52.125Z,4.51
2023-03-15T09:15:52.089Z,4.42
2023-03-15T09:16:52.185Z,4.44
2023-03-15T09:17:52.080Z,4.52
2023-03-15T09:18:52.104Z,4.69
2023-03-15T09:19:52.042Z,4.77
2023-03-15T09:20:52.011Z,4.89
2023-03-15T09:21:51.985Z,4.96
2023-03-15T09:22:51.982Z,4.96
2023-03-15T09:23:51.958Z,4.92
2023-03-15T09:24:51.966Z,4.96
2023-03-15T09:25:51.916Z,4.99
2023-03-15T09:26:51.902Z,4.99
2023-03-15T09:27:51.905Z,4.96
2023-03-15T09:28:51.866Z,4.96
2023-03-15T09:29:51.867Z,4.97
2023-03-15T09:30:51.955Z,4.99
2023-03-15T09:31:51.833Z,4.85
2023-03-15T09:32:51.910Z,4.84
2023-03-15T09:33:51.796Z,4.66
2023-03-15T09:34:51.792Z,4.58
2023-03-15T09:35:51.889Z,4.62
2023-03-15T09:36:51.730Z,4.72
2023-03-15T09:37:51.716Z,4.86
2023-03-15T09:38:51.698Z,4.94
2023-03-15T09:39:51.731Z,5.00
2023-03-15T09:40:51.666Z,5.09
2023-03-15T09:41:51.698Z,5.13
2023-03-15T09:42:51.651Z,5.09
2023-03-15T09:43:51.675Z,5.17
2023-03-15T09:44:51.594Z,5.07
2023-03-15T09:45:51.731Z,4.92
2023-03-15T09:46:51.704Z,4.96
2023-03-15T09:47:51.553Z,4.91
2023-03-15T09:48:51.531Z,5.10
2023-03-15T09:49:51.502Z,5.07
2023-03-15T09:50:51.524Z,5.07
2023-03-15T09:51:51.520Z,5.15
2023-03-15T09:52:51.537Z,5.09
2023-03-15T09:53:51.468Z,4.80
2023-03-15T09:54:51.437Z,4.78
2023-03-15T09:55:51.416Z,4.85
2023-03-15T09:56:51.447Z,4.85
2023-03-15T09:57:51.390Z,4.99
2023-03-15T09:58:51.353Z,4.89
2023-03-15T09:59:51.326Z,5.07
2023-03-15T10:00:51.309Z,5.09
2023-03-15T10:01:51.340Z,5.13
2023-03-15T10:02:51.298Z,5.17
2023-03-15T10:03:51.380Z,5.27
2023-03-15T10:04:51.265Z,5.28
2023-03-15T10:05:51.215Z,5.18
2023-03-15T10:06:51.197Z,5.35
2023-03-15T10:07:51.227Z,5.28
2023-03-15T10:08:51.157Z,5.35
2023-03-15T10:09:51.169Z,5.39
2023-03-15T10:10:51.135Z,5.38
2023-03-15T10:11:51.118Z,5.39
2023-03-15T10:12:51.089Z,5.31
2023-03-15T10:13:51.084Z,5.35
2023-03-15T10:14:51.053Z,5.42
2023-03-15T10:15:51.085Z,5.53
2023-03-15T10:16:51.047Z,5.60
2023-03-15T10:17:51.004Z,5.64
2023-03-15T10:18:51.006Z,5.57
2023-03-15T10:19:51.004Z,5.45
2023-03-15T10:20:51.027Z,5.45
2023-03-15T10:21:50.935Z,5.22
2023-03-15T10:22:50.915Z,5.24
2023-03-15T10:23:50.899Z,5.21
2023-03-15T10:24:50.932Z,5.25
2023-03-15T10:25:50.858Z,5.42
2023-03-15T10:26:50.848Z,5.63
2023-03-15T10:27:50.852Z,5.68
2023-03-15T10:28:50.812Z,5.81
2023-03-15T10:29:50.798Z,5.83
2023-03-15T10:30:50.961Z,5.91
2023-03-15T10:31:50.814Z,6.08
2023-03-15T10:32:50.786Z,6.14
2023-03-15T10:33:50.731Z,6.25
2023-03-15T10:34:50.702Z,6.14
2023-03-15T10:35:52.493Z,6.17
2023-03-15T10:36:50.690Z,6.03
2023-03-15T10:37:50.674Z,5.93
2023-03-15T10:38:50.656Z,5.74
2023-03-15T10:39:50.614Z,5.83
2023-03-15T10:40:50.636Z,5.71
2023-03-15T10:41:50.582Z,5.56
2023-03-15T10:42:50.568Z,5.68
2023-03-15T10:43:50.548Z,5.68
2023-03-15T10:44:50.539Z,5.74
2023-03-15T10:45:52.129Z,5.65
2023-03-15T10:46:50.575Z,5.71
2023-03-15T10:47:59.442Z,5.78
2023-03-15T10:48:50.470Z,5.83
2023-03-15T10:49:50.457Z,6.00
2023-03-15T10:50:50.455Z,6.06
2023-03-15T10:51:50.445Z,6.04
2023-03-15T10:52:51.523Z,6.17
2023-03-15T10:53:50.369Z,6.51
2023-03-15T10:54:55.343Z,6.64
2023-03-15T10:55:50.334Z,6.59
2023-03-15T10:56:50.317Z,6.44
2023-03-15T10:57:50.307Z,6.25
2023-03-15T10:59:05.932Z,6.03
2023-03-15T10:59:50.268Z,5.97
2023-03-15T11:00:50.253Z,6.03
2023-03-15T11:01:50.276Z,6.03
2023-03-15T11:02:50.271Z,5.99
2023-03-15T11:03:50.212Z,5.93
2023-03-15T11:04:50.188Z,6.17
2023-03-15T11:05:50.294Z,6.49
2023-03-15T11:06:50.180Z,6.74
2023-03-15T11:07:50.144Z,7.05
2023-03-15T11:08:50.120Z,7.43
2023-03-15T11:09:50.098Z,7.52
2023-03-15T11:10:50.128Z,7.57
2023-03-15T11:11:50.132Z,7.25
2023-03-15T11:12:50.158Z,6.80
2023-03-15T11:13:50.066Z,6.71
2023-03-15T11:14:50.013Z,6.69
2023-03-15T11:15:50.089Z,6.71
2023-03-15T11:16:50.151Z,6.91
2023-03-15T11:17:50.021Z,6.85
2023-03-15T11:18:49.949Z,6.70
2023-03-15T11:19:49.933Z,6.52
2023-03-15T11:20:49.931Z,6.28
2023-03-15T11:21:49.942Z,6.34
2023-03-15T11:22:49.886Z,6.41
2023-03-15T11:23:49.958Z,6.17
2023-03-15T11:24:49.916Z,6.17
2023-03-15T11:25:49.835Z,6.00
2023-03-15T11:26:49.823Z,6.03
2023-03-15T11:27:49.857Z,6.34
2023-03-15T11:28:49.865Z,6.61
2023-03-15T11:29:49.800Z,6.69
2023-03-15T11:30:49.758Z,6.77
2023-03-15T11:31:49.766Z,6.77
2023-03-15T11:32:49.743Z,6.64
2023-03-15T11:33:49.702Z,6.61
2023-03-15T11:34:49.690Z,6.38
2023-03-15T11:35:49.735Z,6.22
2023-03-15T11:37:01.898Z,6.18
2023-03-15T11:37:49.643Z,6.31
2023-03-15T11:38:49.675Z,6.48
2023-03-15T11:39:51.703Z,6.71
2023-03-15T11:40:49.606Z,6.84
2023-03-15T11:41:49.561Z,6.94
2023-03-15T11:42:49.543Z,6.81
2023-03-15T11:43:49.527Z,6.77
2023-03-15T11:44:49.511Z,6.69
2023-03-15T11:45:49.546Z,6.70
2023-03-15T11:46:49.480Z,6.55
2023-03-15T11:47:49.472Z,6.46
2023-03-15T11:48:49.455Z,6.52
2023-03-15T11:49:49.472Z,6.34
2023-03-15T11:50:49.408Z,6.55
2023-03-15T11:51:49.391Z,6.51
2023-03-15T11:52:49.369Z,6.30
2023-03-15T11:53:49.358Z,6.31
2023-03-15T11:54:49.352Z,6.40
2023-03-15T11:55:49.321Z,6.44
2023-03-15T11:56:49.324Z,6.73
2023-03-15T11:57:49.289Z,6.95
2023-03-15T11:58:49.268Z,7.13
2023-03-15T11:59:49.280Z,7.03
2023-03-15T12:00:49.228Z,7.03
2023-03-15T12:01:49.288Z,6.98
2023-03-15T12:02:49.221Z,6.89
2023-03-15T12:03:49.181Z,6.79
2023-03-15T12:04:49.229Z,6.76
2023-03-15T12:05:49.166Z,6.66
2023-03-15T12:06:49.130Z,6.69
2023-03-15T12:07:49.116Z,6.62
2023-03-15T12:08:49.100Z,6.48
2023-03-15T12:09:49.101Z,6.36
2023-03-15T12:10:49.088Z,6.33
2023-03-15T12:11:49.104Z,6.33
2023-03-15T12:12:49.085Z,6.38
2023-03-15T12:13:49.014Z,6.33
2023-03-15T12:14:48.990Z,6.27
2023-03-15T12:15:48.999Z,6.22
2023-03-15T12:16:48.992Z,6.28
2023-03-15T12:17:48.962Z,6.18
2023-03-15T12:18:48.962Z,6.18
2023-03-15T12:19:48.900Z,6.17
2023-03-15T12:20:48.884Z,6.31
2023-03-15T12:21:48.875Z,6.28
2023-03-15T12:22:48.854Z,6.37
2023-03-15T12:23:48.907Z,6.67
2023-03-15T12:24:48.818Z,7.05
2023-03-15T12:25:54.656Z,7.30
2023-03-15T12:26:48.778Z,7.17
2023-03-15T12:27:48.757Z,7.06
2023-03-15T12:28:48.752Z,6.95
2023-03-15T12:29:48.728Z,6.80
2023-03-15T12:30:48.745Z,6.74
2023-03-15T12:31:48.695Z,6.52
2023-03-15T12:32:48.729Z,6.48
2023-03-15T12:33:48.684Z,6.41
2023-03-15T12:34:48.644Z,6.40
2023-03-15T12:35:48.723Z,6.40
2023-03-15T12:36:48.797Z,6.38
2023-03-15T12:37:48.582Z,6.37
2023-03-15T12:38:48.564Z,6.27
2023-03-15T12:39:48.576Z,6.17
2023-03-15T12:40:48.552Z,6.14
2023-03-15T12:41:48.512Z,6.22
2023-03-15T12:42:48.511Z,6.15
2023-03-15T12:43:48.477Z,6.22
2023-03-15T12:44:48.521Z,6.37
2023-03-15T12:45:48.513Z,6.30
2023-03-15T12:46:48.421Z,6.27
2023-03-15T12:47:48.401Z,6.31
2023-03-15T12:48:48.384Z,6.43
2023-03-15T12:49:48.365Z,6.70
2023-03-15T12:50:48.370Z,6.56
2023-03-15T12:51:48.339Z,6.66
2023-03-15T12:52:48.311Z,6.48
2023-03-15T12:53:48.299Z,6.52
2023-03-15T12:54:48.303Z,6.54
2023-03-15T12:55:50.081Z,6.51
2023-03-15T12:56:48.239Z,6.59
2023-03-15T12:57:48.241Z,6.48
2023-03-15T12:58:48.268Z,6.38
2023-03-15T12:59:48.197Z,6.48
2023-03-15T13:00:48.175Z,6.58
2023-03-15T13:01:48.324Z,6.85
2023-03-15T13:02:48.174Z,7.28
2023-03-15T13:03:48.119Z,7.48
2023-03-15T13:04:48.099Z,7.43
2023-03-15T13:05:54.498Z,7.39
2023-03-15T13:06:48.068Z,7.68
2023-03-15T13:07:51.138Z,7.63
2023-03-15T13:08:48.033Z,7.63
2023-03-15T13:09:48.089Z,7.61
2023-03-15T13:10:48.001Z,7.49
2023-03-15T13:11:48.010Z,7.34
2023-03-15T13:12:47.967Z,7.35
2023-03-15T13:13:47.968Z,7.15
2023-03-15T13:14:48.014Z,6.95
2023-03-15T13:15:47.973Z,6.81
2023-03-15T13:16:47.916Z,6.79
2023-03-15T13:17:47.889Z,6.44